Nearby METAR Reports

 

CYYJ - Victoria Intl Ar, British Columbia, Canada
Distance from station: N 6km
Updated: 12/08/2020 05:00
Mostly cloudy
Mostly cloudy
 Wind from SW
Wind: SW 9 km/h
Temperature: 11°C
Dew Point: 7°C
Humidity: 77%
Barometer: 1014.6 hPa
Clouds: Mostly cloudy
Visibility: 24 km
Cloud details: Mostly cloudy 1981 m
2020/08/12 12:00 CYYJ 121200Z 23005KT 15SM BKN065 11/07 A2996 RMK SC6 SLP148
CWKH - Malahat (autob), British Columbia, Canada
Distance from station: WSW 10km
Updated: 12/08/2020 05:00

 
Temperature: 10°C
2020/08/12 12:00 CWKH 121200Z AUTO 10/ RMK AO1 SLP137 T0103 53010
 
CWPF - Esquimalt Metoc, British Columbia, Canada
Distance from station: S 18km
Updated: 12/08/2020 05:30

 Wind from W
Wind: W 15 km/h
Temperature: 14°C
Dew Point: 9°C
Humidity: 72%
2020/08/12 12:30 CWPF 121230Z AUTO 28008KT 14/09 RMK AO1 SLP146 T01350086 52011
CWYJ - Victoria Univ, British Columbia, Canada
Distance from station: SSE 18km
Updated: 12/08/2020 05:00

 Wind from W
Wind: W 7 km/h
Temperature: 12°C
Dew Point: 9°C
Humidity: 82%
2020/08/12 12:00 CWYJ 121200Z AUTO 28004KT 12/09 RMK AO1 SLP149 T01170088 53009
 
CYWH - Victoria Harbour, British Columbia, Canada
Distance from station: S 20km
Updated: 11/08/2020 19:00
NOT Current
Mostly cloudy
Mostly cloudy
 Wind from WSW
Wind: WSW 33 km/h
Temperature: 15°C
Dew Point: 8°C
Humidity: 63%
Barometer: 1012.2 hPa
Clouds: Mostly cloudy
Visibility: 24 km
Cloud details: Few Clouds 1219 m
Partly cloudy 3658 m
Mostly cloudy 6096 m
2020/08/12 02:00 CYWH 120200Z 25018KT 15SM FEW040 SCT120 BKN200 15/08 A2989 RMK SC2AC2CI3 LAST STFD OBS/NEXT 121400Z SLP123 DENSITY ALT 100FT
CWLM - Victoria (autob), British Columbia, Canada
Distance from station: SSE 21km
Updated: 12/08/2020 05:00

 Wind from W
Wind: W 15 km/h
Temperature: 12°C
Dew Point: 9°C
Humidity: 82%
2020/08/12 12:00 CWLM 121200Z AUTO 26008KT 12/09 RMK AO1 SLP148 T01190090 52009
 
KFHR - Friday Harbor, Washington, USA
Distance from station: ESE 30km
Updated: 12/08/2020 04:53
Overcast
Overcast
 Wind from calm
Wind: Calm
Temperature: 11°C
Dew Point: 9°C
Humidity: 88%
Barometer: 1015.2 hPa
Clouds: Overcast
Visibility: 16 km
Cloud details: Overcast 1676 m
2020/08/12 11:53 KFHR 121153Z AUTO 00000KT 10SM OVC055 11/09 A2998 RMK AO2 SLP151 T01060094 10133 20094 53011 TSNO
CWQK - Race Rocks Autob, British Columbia, Canada
Distance from station: SSW 34km
Updated: 12/08/2020 05:00

 Wind from W
Wind: W 30 km/h
Temperature: 13°C
Dew Point: 10°C
Humidity: 82%
2020/08/12 12:00 CWQK 121200Z AUTO 28016KT 13/10 RMK AO1 PK WND 28018/1146 SLP150 T01280097 51012
 
CWEZ - Saturna Isl (map, British Columbia, Canada
Distance from station: NE 35km
Updated: 11/07/2020 13:00
NOT Current

 Wind from WSW
Wind: WSW 6 km/h
Temperature: 16°C
Dew Point: 10°C
Humidity: 68%
2020/07/11 20:00 CWEZ 112000Z AUTO 24003KT 16/10 RMK AO1 SLP185 T01630095 51004
KORS - Eastsound/Orcas, Washington, USA
Distance from station: ENE 39km
Updated: 12/08/2020 05:35
Mostly cloudy
Mostly cloudy
 Wind from SSE
Wind: SSE 7 km/h
Temperature: 12°C
Dew Point: 10°C
Humidity: 88%
Barometer: 1014.6 hPa
Clouds: Mostly cloudy
Visibility: 16 km
Cloud details: Few Clouds 1463 m
Mostly cloudy 1981 m
2020/08/12 12:35 KORS 121235Z AUTO 16004KT 10SM FEW048 BKN065 12/10 A2996 RMK AO2
 
CWSP - Sheringham Autob, British Columbia, Canada
Distance from station: WSW 43km
Updated: 12/08/2020 05:00

 Wind from WNW
Wind: WNW 9 km/h
Temperature: 13°C
2020/08/12 12:00 CWSP 121200Z AUTO 30005KT 13/ RMK AO1 SLP157 T0129 53006